createdAt,value
2019-05-22T00:00:03.131Z,96.21
2019-05-22T00:02:36.012Z,96.05
2019-05-22T00:05:15.142Z,96.31
2019-05-22T00:07:43.956Z,96.39
2019-05-22T00:10:15.937Z,96.47
2019-05-22T00:12:46.865Z,96.13
2019-05-22T00:15:15.623Z,96.09
2019-05-22T00:17:44.924Z,96.28
2019-05-22T00:20:13.838Z,96.30
2019-05-22T00:22:45.021Z,96.81
2019-05-22T00:25:17.893Z,96.30
2019-05-22T00:27:48.777Z,96.29
2019-05-22T00:30:20.021Z,95.74
2019-05-22T00:32:47.390Z,95.39
2019-05-22T00:35:16.578Z,95.01
2019-05-22T00:37:45.479Z,94.77
2019-05-22T00:40:14.874Z,95.17
2019-05-22T00:42:44.381Z,95.33
2019-05-22T00:45:14.295Z,95.47
2019-05-22T00:47:43.110Z,94.92
2019-05-22T00:50:13.634Z,94.13
2019-05-22T00:53:04.861Z,94.56
2019-05-22T00:55:47.989Z,93.63
2019-05-22T00:58:26.395Z,93.33
2019-05-22T01:01:01.451Z,93.04
2019-05-22T01:03:31.362Z,92.63
2019-05-22T01:06:01.057Z,92.65
2019-05-22T01:08:28.557Z,92.13
2019-05-22T01:10:57.457Z,92.70
2019-05-22T01:13:29.805Z,91.79
2019-05-22T01:15:58.198Z,90.83
2019-05-22T01:18:27.821Z,90.79
2019-05-22T01:20:58.229Z,90.71
2019-05-22T01:23:28.789Z,90.85
2019-05-22T01:25:56.875Z,90.79
2019-05-22T01:28:25.441Z,90.36
2019-05-22T01:31:11.338Z,90.17
2019-05-22T01:33:50.361Z,89.61
2019-05-22T01:36:23.452Z,89.86
2019-05-22T01:38:52.854Z,89.77
2019-05-22T01:41:29.843Z,89.57
2019-05-22T01:43:59.854Z,88.99
2019-05-22T01:46:32.536Z,90.45
2019-05-22T01:49:03.443Z,89.40
2019-05-22T01:51:31.657Z,89.76
2019-05-22T01:53:59.669Z,89.32
2019-05-22T01:56:29.329Z,89.05
2019-05-22T01:58:57.752Z,89.17
2019-05-22T02:01:26.540Z,89.83
2019-05-22T02:03:55.691Z,89.91
2019-05-22T02:06:24.334Z,89.82
2019-05-22T02:09:05.762Z,89.43
2019-05-22T02:11:33.366Z,89.39
2019-05-22T02:14:09.604Z,88.76
2019-05-22T02:16:53.874Z,88.15
2019-05-22T02:19:08.202Z,88.38
2019-05-22T02:21:35.649Z,88.39
2019-05-22T02:24:04.414Z,87.58
2019-05-22T02:26:32.582Z,87.90
2019-05-22T02:29:01.011Z,88.34
2019-05-22T02:31:29.971Z,88.60
2019-05-22T02:34:08.770Z,88.66
2019-05-22T02:36:40.320Z,88.66
2019-05-22T02:39:23.413Z,88.75
2019-05-22T02:41:54.394Z,88.51
2019-05-22T02:44:22.994Z,88.33
2019-05-22T02:46:52.615Z,88.77
2019-05-22T02:49:20.341Z,87.99
2019-05-22T02:51:48.147Z,87.91
2019-05-22T02:54:16.422Z,88.08
2019-05-22T02:56:44.031Z,88.44
2019-05-22T02:59:12.402Z,88.43
2019-05-22T03:01:40.105Z,88.05
2019-05-22T03:04:09.942Z,88.09
2019-05-22T03:06:38.592Z,88.44
2019-05-22T03:09:26.734Z,88.43
2019-05-22T03:11:58.627Z,87.74
2019-05-22T03:14:27.003Z,88.32
2019-05-22T03:16:59.758Z,87.79
2019-05-22T03:19:35.946Z,87.93
2019-05-22T03:22:28.418Z,88.12
2019-05-22T03:24:59.522Z,88.01
2019-05-22T03:27:39.413Z,87.41
2019-05-22T03:30:17.238Z,87.46
2019-05-22T03:32:45.041Z,87.93
2019-05-22T03:35:13.641Z,87.50
2019-05-22T03:37:42.729Z,87.63
2019-05-22T03:40:12.264Z,87.43
2019-05-22T03:42:39.580Z,87.60
2019-05-22T03:45:10.034Z,87.97
2019-05-22T03:47:38.042Z,87.67
2019-05-22T03:50:05.920Z,87.52
2019-05-22T03:52:33.592Z,88.16
2019-05-22T03:55:01.152Z,87.98
2019-05-22T03:57:29.334Z,87.71
2019-05-22T03:59:57.210Z,87.81
2019-05-22T04:02:26.103Z,88.50
2019-05-22T04:04:54.150Z,89.22
2019-05-22T04:07:23.457Z,90.39
2019-05-22T04:09:52.411Z,91.29
2019-05-22T04:12:20.757Z,91.76
2019-05-22T04:14:49.226Z,92.44
2019-05-22T04:17:17.194Z,92.74
2019-05-22T04:19:50.576Z,92.41
2019-05-22T04:22:14.885Z,92.70
2019-05-22T04:24:44.068Z,92.05
2019-05-22T04:27:12.498Z,91.49
2019-05-22T04:29:40.699Z,91.38
2019-05-22T04:32:18.467Z,91.37
2019-05-22T04:34:46.950Z,91.65
2019-05-22T04:37:15.900Z,91.50
2019-05-22T04:39:47.918Z,91.80
2019-05-22T04:42:16.725Z,90.88
2019-05-22T04:45:07.731Z,90.33
2019-05-22T04:47:37.043Z,89.99
2019-05-22T04:50:08.088Z,89.84
2019-05-22T04:52:35.912Z,89.93
2019-05-22T04:55:07.006Z,88.87
2019-05-22T04:57:34.820Z,88.60
2019-05-22T05:00:03.504Z,88.87
2019-05-22T05:02:31.598Z,88.97
2019-05-22T05:04:59.973Z,88.43
2019-05-22T05:07:30.295Z,87.73
2019-05-22T05:09:58.106Z,88.39
2019-05-22T05:12:26.412Z,88.39
2019-05-22T05:14:53.937Z,88.30
2019-05-22T05:17:21.192Z,87.95
2019-05-22T05:19:48.861Z,87.94
2019-05-22T05:22:24.933Z,87.76
2019-05-22T05:24:55.552Z,87.24
2019-05-22T05:27:21.976Z,88.49
2019-05-22T05:29:49.540Z,88.69
2019-05-22T05:32:17.401Z,88.86
2019-05-22T05:34:55.822Z,89.02
2019-05-22T05:37:24.720Z,88.93
2019-05-22T05:40:26.093Z,88.09
2019-05-22T05:42:54.064Z,87.75
2019-05-22T05:45:21.436Z,87.41
2019-05-22T05:47:50.656Z,87.30
2019-05-22T05:50:19.741Z,86.39
2019-05-22T05:52:47.614Z,87.16
2019-05-22T05:55:15.382Z,86.32
2019-05-22T05:58:31.743Z,85.71
2019-05-22T06:01:10.316Z,86.49
2019-05-22T06:03:39.924Z,86.50
2019-05-22T06:07:00.602Z,85.92
2019-05-22T06:09:28.928Z,85.42
2019-05-22T06:12:01.032Z,85.29
2019-05-22T06:14:29.967Z,85.28
2019-05-22T06:18:05.112Z,84.47
2019-05-22T06:20:33.388Z,83.86
2019-05-22T06:23:50.206Z,83.52
2019-05-22T06:27:10.704Z,83.40
2019-05-22T06:29:55.841Z,83.23
2019-05-22T06:33:02.296Z,83.04
2019-05-22T06:35:37.157Z,82.63
2019-05-22T06:38:40.549Z,81.95
2019-05-22T06:41:09.433Z,81.31
2019-05-22T06:44:37.624Z,80.80
2019-05-22T06:47:10.058Z,81.71
2019-05-22T06:49:57.265Z,82.04
2019-05-22T06:52:25.433Z,82.80
2019-05-22T06:54:54.024Z,81.97
2019-05-22T06:57:23.662Z,83.30
2019-05-22T07:00:11.640Z,83.15
2019-05-22T07:02:21.337Z,83.26
2019-05-22T07:04:49.607Z,83.29
2019-05-22T07:07:17.821Z,83.73
2019-05-22T07:09:46.209Z,83.04
2019-05-22T07:12:14.997Z,82.60
2019-05-22T07:15:20.611Z,82.17
2019-05-22T07:17:50.125Z,81.21
2019-05-22T07:20:17.783Z,80.02
2019-05-22T07:22:46.406Z,81.26
2019-05-22T07:25:13.789Z,80.48
2019-05-22T07:27:41.893Z,80.42
2019-05-22T07:30:10.532Z,80.68
2019-05-22T07:32:38.478Z,80.88
2019-05-22T07:35:06.410Z,80.40
2019-05-22T07:37:38.262Z,80.05
2019-05-22T07:40:07.510Z,80.68
2019-05-22T07:42:34.913Z,80.77
2019-05-22T07:45:02.561Z,79.90
2019-05-22T07:47:30.300Z,80.39
2019-05-22T07:49:58.346Z,79.82
2019-05-22T07:52:25.922Z,78.54
2019-05-22T07:54:53.596Z,78.91
2019-05-22T07:57:23.262Z,78.86
2019-05-22T07:59:51.669Z,79.01
2019-05-22T08:02:22.382Z,78.99
2019-05-22T08:04:50.303Z,79.83
2019-05-22T08:07:20.216Z,80.79
2019-05-22T08:09:48.285Z,80.90
2019-05-22T08:12:15.878Z,81.96
2019-05-22T08:14:43.877Z,80.55
2019-05-22T08:17:12.671Z,80.23
2019-05-22T08:19:40.274Z,82.04
2019-05-22T08:22:08.151Z,82.93
2019-05-22T08:24:35.430Z,82.42
2019-05-22T08:27:04.559Z,83.87
2019-05-22T08:29:33.638Z,85.39
2019-05-22T08:32:02.332Z,85.39
2019-05-22T08:34:30.987Z,84.49
2019-05-22T08:36:59.748Z,84.26
2019-05-22T08:39:28.358Z,83.41
2019-05-22T08:41:56.658Z,81.91
2019-05-22T08:44:24.371Z,81.20
2019-05-22T08:46:51.842Z,81.04
2019-05-22T08:49:19.718Z,80.27
2019-05-22T08:51:48.843Z,80.01
2019-05-22T08:54:17.628Z,79.19
2019-05-22T08:56:48.949Z,78.59
2019-05-22T08:59:19.764Z,77.49
2019-05-22T09:01:47.409Z,78.01
2019-05-22T09:04:14.805Z,77.99
2019-05-22T09:06:42.029Z,77.60
2019-05-22T09:09:09.367Z,76.31
2019-05-22T09:11:36.592Z,75.87
2019-05-22T09:14:03.862Z,74.77
2019-05-22T09:16:31.780Z,74.89
2019-05-22T09:18:59.084Z,75.12
2019-05-22T09:21:27.144Z,73.95
2019-05-22T09:23:55.305Z,73.58
2019-05-22T09:26:22.841Z,71.20
2019-05-22T09:28:50.071Z,71.69
2019-05-22T09:31:17.904Z,71.31
2019-05-22T09:33:45.480Z,70.51
2019-05-22T09:36:12.757Z,69.65
2019-05-22T09:38:40.418Z,70.28
2019-05-22T09:41:08.505Z,69.05
2019-05-22T09:43:36.658Z,69.06
2019-05-22T09:46:04.798Z,68.29
2019-05-22T09:48:34.491Z,68.55
2019-05-22T09:51:01.755Z,69.31
2019-05-22T09:53:30.810Z,69.08
2019-05-22T09:55:58.341Z,67.71
2019-05-22T09:58:27.254Z,68.77
2019-05-22T10:00:54.823Z,68.33
2019-05-22T10:03:22.761Z,67.26
2019-05-22T10:05:50.460Z,67.23
2019-05-22T10:08:17.840Z,66.38
2019-05-22T10:10:45.390Z,67.69
2019-05-22T10:13:12.940Z,70.06
2019-05-22T10:15:41.119Z,70.10
2019-05-22T10:18:08.556Z,70.23
2019-05-22T10:20:36.480Z,70.57
2019-05-22T10:23:15.544Z,69.74
2019-05-22T10:25:35.446Z,69.28
2019-05-22T10:28:03.889Z,68.93
2019-05-22T10:30:31.287Z,69.20
2019-05-22T10:32:58.844Z,67.38
2019-05-22T10:35:29.291Z,65.77
2019-05-22T10:37:57.196Z,65.14
2019-05-22T10:40:25.276Z,64.39
2019-05-22T10:42:53.206Z,65.53
2019-05-22T10:45:20.639Z,65.77
2019-05-22T10:47:48.562Z,66.01
2019-05-22T10:50:16.380Z,65.51
2019-05-22T10:52:44.031Z,67.06
2019-05-22T10:55:12.491Z,65.29
2019-05-22T10:57:41.113Z,65.10
2019-05-22T11:00:12.420Z,62.13
2019-05-22T11:02:40.026Z,61.16
2019-05-22T11:05:08.444Z,61.21
2019-05-22T11:07:36.019Z,58.40
2019-05-22T11:10:04.084Z,56.55
2019-05-22T11:12:31.608Z,55.69
2019-05-22T11:14:59.379Z,57.41
2019-05-22T11:17:26.713Z,58.02
2019-05-22T11:19:54.184Z,57.31
2019-05-22T11:22:22.162Z,52.51
2019-05-22T11:24:49.412Z,50.87
2019-05-22T11:27:16.747Z,57.17
2019-05-22T11:29:45.151Z,57.60
2019-05-22T11:32:13.651Z,54.11
2019-05-22T11:34:41.111Z,54.68
2019-05-22T11:37:09.644Z,56.48
2019-05-22T11:39:41.175Z,56.35
2019-05-22T11:42:09.774Z,53.29
2019-05-22T11:44:39.417Z,56.85
2019-05-22T11:47:08.707Z,57.44
2019-05-22T11:49:36.182Z,58.00
2019-05-22T11:52:04.872Z,56.93
2019-05-22T11:54:32.309Z,55.49
2019-05-22T11:57:00.463Z,54.78
2019-05-22T11:59:27.662Z,52.31
2019-05-22T12:01:55.242Z,51.63
2019-05-22T12:04:22.940Z,50.90
2019-05-22T12:06:53.577Z,50.81
2019-05-22T12:09:20.686Z,54.17
2019-05-22T12:11:48.846Z,51.09
2019-05-22T12:14:17.436Z,51.69
2019-05-22T12:16:46.533Z,51.46
2019-05-22T12:19:14.564Z,49.98
2019-05-22T12:21:42.072Z,50.90
2019-05-22T12:24:26.195Z,51.64
2019-05-22T12:26:39.417Z,53.40
2019-05-22T12:29:06.673Z,52.77
2019-05-22T12:31:34.389Z,47.83
2019-05-22T12:34:02.256Z,46.33
2019-05-22T12:36:29.863Z,45.98
2019-05-22T12:38:58.564Z,48.10
2019-05-22T12:41:28.068Z,48.57
2019-05-22T12:43:55.365Z,47.23
2019-05-22T12:46:22.994Z,45.99
2019-05-22T12:48:50.438Z,47.08
2019-05-22T12:51:18.372Z,45.35
2019-05-22T12:53:45.987Z,46.81
2019-05-22T12:56:13.594Z,49.09
2019-05-22T12:58:42.915Z,50.48
2019-05-22T13:01:11.221Z,47.47
2019-05-22T13:03:38.797Z,44.98
2019-05-22T13:06:08.036Z,45.79
2019-05-22T13:08:36.960Z,48.27
2019-05-22T13:11:05.718Z,47.21
2019-05-22T13:13:33.077Z,48.40
2019-05-22T13:16:00.783Z,49.66
2019-05-22T13:18:29.900Z,49.91
2019-05-22T13:20:57.573Z,49.87
2019-05-22T13:23:30.202Z,50.40
2019-05-22T13:25:58.292Z,48.66
2019-05-22T13:28:28.817Z,52.09
2019-05-22T13:30:57.731Z,49.86
2019-05-22T13:33:28.640Z,49.03
2019-05-22T13:35:56.937Z,53.50
2019-05-22T13:38:24.919Z,48.96
2019-05-22T13:40:52.341Z,47.48
2019-05-22T13:43:19.862Z,45.70
2019-05-22T13:45:47.342Z,49.41
2019-05-22T13:48:14.531Z,45.03
2019-05-22T13:50:42.358Z,44.91
2019-05-22T13:53:13.827Z,44.85
2019-05-22T13:55:41.425Z,43.54
2019-05-22T13:58:10.635Z,42.46
2019-05-22T14:00:38.781Z,42.37
2019-05-22T14:03:06.217Z,44.03
2019-05-22T14:05:34.889Z,42.59
2019-05-22T14:08:02.511Z,41.54
2019-05-22T14:10:31.950Z,42.47
2019-05-22T14:12:59.765Z,42.94
2019-05-22T14:15:27.214Z,45.98
2019-05-22T14:17:54.970Z,45.15
2019-05-22T14:20:22.948Z,45.07
2019-05-22T14:22:50.261Z,39.75
2019-05-22T14:25:20.071Z,42.62
2019-05-22T14:27:47.694Z,40.25
2019-05-22T14:30:16.869Z,39.65
2019-05-22T14:32:44.237Z,43.83
2019-05-22T14:35:14.104Z,44.92
2019-05-22T14:37:41.557Z,43.39
2019-05-22T14:40:10.976Z,42.55
2019-05-22T14:42:38.733Z,41.18
2019-05-22T14:45:07.774Z,44.82
2019-05-22T14:47:35.389Z,46.37
2019-05-22T14:50:03.608Z,44.23
2019-05-22T14:52:31.718Z,42.53
2019-05-22T14:54:59.351Z,41.10
2019-05-22T14:57:27.147Z,39.45
2019-05-22T14:59:54.511Z,39.45
2019-05-22T15:02:23.618Z,38.85
2019-05-22T15:04:52.138Z,39.36
2019-05-22T15:07:19.406Z,39.36
2019-05-22T15:09:46.793Z,39.74
2019-05-22T15:12:14.142Z,41.43
2019-05-22T15:14:41.929Z,42.11
2019-05-22T15:17:09.202Z,44.32
2019-05-22T15:19:36.906Z,43.84
2019-05-22T15:22:05.096Z,44.79
2019-05-22T15:24:33.080Z,42.79
2019-05-22T15:27:01.166Z,42.38
2019-05-22T15:29:28.662Z,44.87
2019-05-22T15:31:56.397Z,43.83
2019-05-22T15:34:24.357Z,44.26
2019-05-22T15:36:52.270Z,42.24
2019-05-22T15:39:23.181Z,43.25
2019-05-22T15:41:51.132Z,42.61
2019-05-22T15:44:19.818Z,41.42
2019-05-22T15:46:48.294Z,43.94
2019-05-22T15:49:18.572Z,44.29
2019-05-22T15:51:49.769Z,43.57
2019-05-22T15:54:18.482Z,44.37
2019-05-22T15:56:47.084Z,43.81
2019-05-22T15:59:16.257Z,44.18
2019-05-22T16:01:45.565Z,44.47
2019-05-22T16:04:16.064Z,44.88
2019-05-22T16:06:43.666Z,44.63
2019-05-22T16:09:15.678Z,44.02
2019-05-22T16:11:45.836Z,44.15
2019-05-22T16:14:14.642Z,43.64
2019-05-22T16:16:44.619Z,43.45
2019-05-22T16:19:12.606Z,42.99
2019-05-22T16:21:46.030Z,43.91
2019-05-22T16:24:14.411Z,43.64
2019-05-22T16:26:41.789Z,44.03
2019-05-22T16:29:09.888Z,45.31
2019-05-22T16:31:39.133Z,43.98
2019-05-22T16:34:07.208Z,44.36
2019-05-22T16:36:34.510Z,43.37
2019-05-22T16:39:04.110Z,43.76
2019-05-22T16:41:31.775Z,44.02
2019-05-22T16:44:00.078Z,43.47
2019-05-22T16:46:28.798Z,44.16
2019-05-22T16:48:57.173Z,43.20
2019-05-22T16:51:25.875Z,44.20
2019-05-22T16:53:59.047Z,43.86
2019-05-22T16:56:27.219Z,42.74
2019-05-22T16:58:55.232Z,43.58
2019-05-22T17:01:23.712Z,43.28
2019-05-22T17:03:53.801Z,43.79
2019-05-22T17:06:23.034Z,43.61
2019-05-22T17:08:50.690Z,45.02
2019-05-22T17:11:18.327Z,44.37
2019-05-22T17:13:45.614Z,43.64
2019-05-22T17:16:14.715Z,45.76
2019-05-22T17:18:47.395Z,45.24
2019-05-22T17:21:12.291Z,44.18
2019-05-22T17:23:40.508Z,44.46
2019-05-22T17:26:08.286Z,45.06
2019-05-22T17:28:36.231Z,45.41
2019-05-22T17:31:04.311Z,45.46
2019-05-22T17:33:32.822Z,44.61
2019-05-22T17:36:05.360Z,45.93
2019-05-22T17:38:31.664Z,46.07
2019-05-22T17:41:01.007Z,45.52
2019-05-22T17:43:29.883Z,45.94
2019-05-22T17:45:57.420Z,47.12
2019-05-22T17:48:26.180Z,46.54
2019-05-22T17:50:53.387Z,48.07
2019-05-22T17:53:21.296Z,45.50
2019-05-22T17:55:48.931Z,46.21
2019-05-22T17:58:16.371Z,45.04
2019-05-22T18:00:46.576Z,45.75
2019-05-22T18:03:14.998Z,45.73
2019-05-22T18:05:42.192Z,45.17
2019-05-22T18:08:11.296Z,46.01
2019-05-22T18:10:41.139Z,47.11
2019-05-22T18:13:09.334Z,46.65
2019-05-22T18:15:36.987Z,46.82
2019-05-22T18:18:06.397Z,47.61
2019-05-22T18:20:42.360Z,47.55
2019-05-22T18:23:03.822Z,49.26
2019-05-22T18:25:31.812Z,48.27
2019-05-22T18:28:01.140Z,48.65
2019-05-22T18:30:28.672Z,49.00
2019-05-22T18:32:55.907Z,49.84
2019-05-22T18:35:23.681Z,49.14
2019-05-22T18:37:52.555Z,49.36
2019-05-22T18:40:20.050Z,51.27
2019-05-22T18:42:47.265Z,49.98
2019-05-22T18:45:15.789Z,50.63
2019-05-22T18:47:43.407Z,52.86
2019-05-22T18:50:11.321Z,51.46
2019-05-22T18:52:43.301Z,51.86
2019-05-22T18:55:11.218Z,52.54
2019-05-22T18:57:39.635Z,52.92
2019-05-22T19:00:07.383Z,54.42
2019-05-22T19:02:34.890Z,53.07
2019-05-22T19:05:02.530Z,52.96
2019-05-22T19:07:30.471Z,53.36
2019-05-22T19:09:58.742Z,53.22
2019-05-22T19:12:26.026Z,55.49
2019-05-22T19:14:53.774Z,54.62
2019-05-22T19:17:22.078Z,54.71
2019-05-22T19:20:09.057Z,54.20
2019-05-22T19:23:13.581Z,54.19
2019-05-22T19:25:40.834Z,54.76
2019-05-22T19:28:08.153Z,56.84
2019-05-22T19:30:35.999Z,55.13
2019-05-22T19:33:03.820Z,55.78
2019-05-22T19:35:31.428Z,56.01
2019-05-22T19:38:01.786Z,56.34
2019-05-22T19:40:29.531Z,56.67
2019-05-22T19:42:56.825Z,57.04
2019-05-22T19:45:24.219Z,58.12
2019-05-22T19:47:56.431Z,58.42
2019-05-22T19:50:24.932Z,58.92
2019-05-22T19:52:54.200Z,59.92
2019-05-22T19:55:22.906Z,59.97
2019-05-22T19:57:51.060Z,60.09
2019-05-22T20:00:19.266Z,60.81
2019-05-22T20:02:50.622Z,61.14
2019-05-22T20:05:17.047Z,61.14
2019-05-22T20:07:44.256Z,61.50
2019-05-22T20:10:13.671Z,62.01
2019-05-22T20:12:40.910Z,63.26
2019-05-22T20:15:09.303Z,64.27
2019-05-22T20:17:37.062Z,64.12
2019-05-22T20:20:05.955Z,64.53
2019-05-22T20:22:33.459Z,65.26
2019-05-22T20:25:00.663Z,66.09
2019-05-22T20:27:28.179Z,66.62
2019-05-22T20:29:57.324Z,67.68
2019-05-22T20:32:24.581Z,67.05
2019-05-22T20:34:52.217Z,66.60
2019-05-22T20:37:19.999Z,66.58
2019-05-22T20:39:47.483Z,66.69
2019-05-22T20:42:15.515Z,67.37
2019-05-22T20:44:43.423Z,67.87
2019-05-22T20:47:10.921Z,67.50
2019-05-22T20:49:42.514Z,67.80
2019-05-22T20:52:12.284Z,67.87
2019-05-22T20:54:40.579Z,68.52
2019-05-22T20:57:08.274Z,68.76
2019-05-22T20:59:37.902Z,68.44
2019-05-22T21:02:05.930Z,68.42
2019-05-22T21:04:37.871Z,68.31
2019-05-22T21:07:06.583Z,67.74
2019-05-22T21:09:34.188Z,68.01
2019-05-22T21:12:04.412Z,67.72
2019-05-22T21:14:31.853Z,68.44
2019-05-22T21:17:00.295Z,67.59
2019-05-22T21:19:28.920Z,66.54
2019-05-22T21:21:57.531Z,66.13
2019-05-22T21:24:25.979Z,65.36
2019-05-22T21:26:53.422Z,65.62
2019-05-22T21:29:21.523Z,65.73
2019-05-22T21:31:49.952Z,65.36
2019-05-22T21:34:17.447Z,65.15
2019-05-22T21:36:44.676Z,65.99
2019-05-22T21:39:13.301Z,64.70
2019-05-22T21:41:40.618Z,64.93
2019-05-22T21:44:09.963Z,64.68
2019-05-22T21:46:38.106Z,64.23
2019-05-22T21:49:06.078Z,65.17
2019-05-22T21:51:33.884Z,64.40
2019-05-22T21:54:01.295Z,64.65
2019-05-22T21:56:29.472Z,64.25
2019-05-22T21:58:57.317Z,64.48
2019-05-22T22:01:31.964Z,64.56
2019-05-22T22:04:09.470Z,64.49
2019-05-22T22:06:37.328Z,65.31
2019-05-22T22:09:05.663Z,64.55
2019-05-22T22:11:34.128Z,64.63
2019-05-22T22:14:02.621Z,64.87
2019-05-22T22:16:30.525Z,66.39
2019-05-22T22:18:59.324Z,66.05
2019-05-22T22:21:27.670Z,66.63
2019-05-22T22:23:54.947Z,66.22
2019-05-22T22:26:26.572Z,65.74
2019-05-22T22:28:54.764Z,65.89
2019-05-22T22:31:24.850Z,65.81
2019-05-22T22:33:57.565Z,64.91
2019-05-22T22:36:25.280Z,65.53
2019-05-22T22:38:54.997Z,65.04
2019-05-22T22:41:22.807Z,66.45
2019-05-22T22:43:52.195Z,66.05
2019-05-22T22:46:36.360Z,66.13
2019-05-22T22:49:05.563Z,66.39
2019-05-22T22:51:35.040Z,66.47
2019-05-22T22:54:04.297Z,67.12
2019-05-22T22:56:31.480Z,67.53
2019-05-22T22:58:58.784Z,66.73
2019-05-22T23:01:30.240Z,66.13
2019-05-22T23:04:00.817Z,65.82
2019-05-22T23:06:29.626Z,67.54
2019-05-22T23:08:56.868Z,66.29
2019-05-22T23:11:26.589Z,64.67
2019-05-22T23:13:53.985Z,63.52
2019-05-22T23:16:23.437Z,63.69
2019-05-22T23:19:40.284Z,66.14
2019-05-22T23:22:12.816Z,66.73
2019-05-22T23:24:43.014Z,66.99
2019-05-22T23:27:12.891Z,67.69
2019-05-22T23:29:42.084Z,67.05
2019-05-22T23:32:11.556Z,67.77
2019-05-22T23:34:39.961Z,67.86
2019-05-22T23:37:10.180Z,69.06
2019-05-22T23:39:39.563Z,69.56
2019-05-22T23:42:12.306Z,69.75
2019-05-22T23:44:40.587Z,70.24
2019-05-22T23:47:08.587Z,70.46
2019-05-22T23:49:37.661Z,70.52
2019-05-22T23:52:06.389Z,70.91
2019-05-22T23:54:35.461Z,71.58
2019-05-22T23:57:04.829Z,72.88
2019-05-22T23:59:35.444Z,73.39
